createdAt,value
2018-07-14T00:01:49.676Z,20.89
2018-07-14T00:04:19.272Z,20.84
2018-07-14T00:06:49.079Z,20.83
2018-07-14T00:09:18.897Z,20.84
2018-07-14T00:11:49.011Z,20.80
2018-07-14T00:14:18.963Z,20.81
2018-07-14T00:16:48.787Z,20.73
2018-07-14T00:19:18.542Z,20.72
2018-07-14T00:21:48.601Z,20.62
2018-07-14T00:24:18.374Z,20.56
2018-07-14T00:26:48.280Z,20.52
2018-07-14T00:29:18.070Z,20.41
2018-07-14T00:31:47.943Z,20.42
2018-07-14T00:34:17.661Z,20.41
2018-07-14T00:36:47.416Z,20.44
2018-07-14T00:39:17.276Z,20.39
2018-07-14T00:41:47.156Z,20.49
2018-07-14T00:44:17.033Z,20.39
2018-07-14T00:46:46.862Z,20.35
2018-07-14T00:49:16.802Z,20.31
2018-07-14T00:51:46.675Z,20.26
2018-07-14T00:54:16.435Z,20.26
2018-07-14T00:56:46.469Z,20.14
2018-07-14T00:59:16.359Z,20.06
2018-07-14T01:01:46.076Z,20.01
2018-07-14T01:04:15.916Z,20.04
2018-07-14T01:06:45.874Z,20.07
2018-07-14T01:09:15.580Z,20.05
2018-07-14T01:11:45.302Z,20.12
2018-07-14T01:14:15.344Z,20.11
2018-07-14T01:16:45.178Z,20.15
2018-07-14T01:19:14.904Z,20.06
2018-07-14T01:21:44.609Z,19.88
2018-07-14T01:24:14.398Z,20.01
2018-07-14T01:26:44.947Z,19.96
2018-07-14T01:29:15.639Z,19.81
2018-07-14T01:31:45.320Z,19.75
2018-07-14T01:34:15.091Z,19.75
2018-07-14T01:36:44.838Z,19.68
2018-07-14T01:39:14.257Z,19.71
2018-07-14T01:41:43.962Z,19.67
2018-07-14T01:44:13.379Z,19.61
2018-07-14T01:46:42.756Z,19.61
2018-07-14T01:49:12.473Z,19.55
2018-07-14T01:51:41.815Z,19.59
2018-07-14T01:54:11.519Z,19.51
2018-07-14T01:56:41.461Z,19.47
2018-07-14T01:59:11.193Z,19.37
2018-07-14T02:01:40.935Z,19.26
2018-07-14T02:04:10.794Z,19.16
2018-07-14T02:06:40.521Z,19.12
2018-07-14T02:09:10.392Z,19.07
2018-07-14T02:11:40.140Z,19.08
2018-07-14T02:14:09.876Z,19.07
2018-07-14T02:16:39.835Z,19.15
2018-07-14T02:19:09.657Z,19.20
2018-07-14T02:21:39.331Z,19.23
2018-07-14T02:24:09.093Z,19.21
2018-07-14T02:26:38.969Z,19.18
2018-07-14T02:29:08.739Z,18.99
2018-07-14T02:31:38.519Z,18.99
2018-07-14T02:34:08.294Z,18.99
2018-07-14T02:36:38.006Z,19.08
2018-07-14T02:39:08.216Z,18.98
2018-07-14T02:41:38.170Z,19.03
2018-07-14T02:44:08.179Z,18.87
2018-07-14T02:46:37.985Z,18.73
2018-07-14T02:49:07.706Z,18.74
2018-07-14T02:51:37.209Z,18.59
2018-07-14T02:54:07.054Z,18.64
2018-07-14T02:56:36.856Z,18.65
2018-07-14T02:59:06.714Z,18.45
2018-07-14T03:01:36.615Z,18.46
2018-07-14T03:04:06.374Z,18.53
2018-07-14T03:06:36.160Z,18.47
2018-07-14T03:09:07.721Z,18.40
2018-07-14T03:11:37.590Z,18.30
2018-07-14T03:14:07.422Z,18.39
2018-07-14T03:16:37.160Z,18.55
2018-07-14T03:19:06.890Z,18.45
2018-07-14T03:21:36.708Z,18.30
2018-07-14T03:24:06.604Z,18.35
2018-07-14T03:26:36.309Z,18.35
2018-07-14T03:29:06.114Z,18.42
2018-07-14T03:31:35.897Z,18.45
2018-07-14T03:34:05.773Z,18.26
2018-07-14T03:36:35.643Z,18.30
2018-07-14T03:39:05.634Z,18.25
2018-07-14T03:41:35.349Z,18.35
2018-07-14T03:44:05.082Z,18.33
2018-07-14T03:46:34.770Z,18.33
2018-07-14T03:49:04.685Z,18.37
2018-07-14T03:51:34.487Z,18.45
2018-07-14T03:54:04.553Z,18.38
2018-07-14T03:56:34.272Z,18.41
2018-07-14T03:59:04.097Z,18.45
2018-07-14T04:01:34.069Z,18.48
2018-07-14T04:04:13.279Z,18.66
2018-07-14T04:06:44.669Z,18.60
2018-07-14T04:09:16.948Z,18.54
2018-07-14T04:11:49.253Z,18.56
2018-07-14T04:14:18.987Z,18.72
2018-07-14T04:16:48.455Z,18.69
2018-07-14T04:19:18.462Z,18.47
2018-07-14T04:21:48.331Z,18.55
2018-07-14T04:24:18.080Z,18.50
2018-07-14T04:26:47.453Z,18.52
2018-07-14T04:29:17.220Z,18.49
2018-07-14T04:31:46.586Z,18.67
2018-07-14T04:34:16.441Z,18.68
2018-07-14T04:36:46.150Z,18.78
2018-07-14T04:39:16.062Z,18.74
2018-07-14T04:41:45.793Z,18.63
2018-07-14T04:44:15.498Z,18.62
2018-07-14T04:46:45.370Z,18.64
2018-07-14T04:49:15.429Z,18.84
2018-07-14T04:51:45.119Z,18.85
2018-07-14T04:54:14.480Z,18.81
2018-07-14T04:56:44.236Z,18.84
2018-07-14T04:59:13.937Z,18.83
2018-07-14T05:01:43.669Z,18.79
2018-07-14T05:04:13.406Z,18.82
2018-07-14T05:06:43.197Z,19.01
2018-07-14T05:09:12.922Z,18.99
2018-07-14T05:11:42.718Z,18.96
2018-07-14T05:14:12.538Z,18.98
2018-07-14T05:16:42.322Z,19.31
2018-07-14T05:19:12.060Z,19.14
2018-07-14T05:21:45.382Z,19.33
2018-07-14T05:24:15.325Z,19.38
2018-07-14T05:26:47.281Z,19.46
2018-07-14T05:29:17.118Z,19.50
2018-07-14T05:31:46.973Z,19.55
2018-07-14T05:34:16.821Z,19.49
2018-07-14T05:36:46.914Z,19.17
2018-07-14T05:39:24.730Z,19.42
2018-07-14T05:41:54.583Z,19.23
2018-07-14T05:44:24.378Z,19.46
2018-07-14T05:46:54.433Z,19.67
2018-07-14T05:49:24.219Z,19.62
2018-07-14T05:51:54.189Z,19.73
2018-07-14T05:54:23.982Z,19.82
2018-07-14T05:56:53.815Z,19.78
2018-07-14T05:59:23.557Z,19.24
2018-07-14T06:01:53.358Z,19.56
2018-07-14T06:04:23.730Z,19.85
2018-07-14T06:06:53.459Z,20.09
2018-07-14T06:09:23.129Z,19.98
2018-07-14T06:11:52.945Z,20.11
2018-07-14T06:14:22.710Z,20.29
2018-07-14T06:16:52.498Z,20.55
2018-07-14T06:19:22.425Z,20.42
2018-07-14T06:21:52.284Z,20.26
2018-07-14T06:24:22.238Z,20.40
2018-07-14T06:26:52.006Z,20.37
2018-07-14T06:29:23.104Z,20.45
2018-07-14T06:32:01.967Z,20.67
2018-07-14T06:34:46.471Z,20.86
2018-07-14T06:37:17.091Z,20.59
2018-07-14T06:39:47.762Z,20.27
2018-07-14T06:42:17.985Z,20.40
2018-07-14T06:44:49.040Z,20.58
2018-07-14T06:47:20.112Z,20.75
2018-07-14T06:49:51.925Z,20.88
2018-07-14T06:52:22.085Z,20.88
2018-07-14T06:54:52.790Z,20.66
2018-07-14T06:57:23.323Z,20.81
2018-07-14T06:59:54.545Z,21.06
2018-07-14T07:02:25.580Z,21.20
2018-07-14T07:05:14.718Z,21.33
2018-07-14T07:07:44.517Z,20.93
2018-07-14T07:10:14.292Z,20.66
2018-07-14T07:12:44.127Z,20.69
2018-07-14T07:15:13.989Z,20.68
2018-07-14T07:17:43.811Z,20.92
2018-07-14T07:20:13.813Z,21.03
2018-07-14T07:22:43.555Z,20.93
2018-07-14T07:25:13.586Z,21.09
2018-07-14T07:27:43.324Z,21.19
2018-07-14T07:30:13.266Z,21.38
2018-07-14T07:32:43.326Z,21.49
2018-07-14T07:35:13.287Z,21.75
2018-07-14T07:37:43.051Z,21.91
2018-07-14T07:40:12.882Z,21.90
2018-07-14T07:42:42.711Z,21.87
2018-07-14T07:45:12.499Z,21.98
2018-07-14T07:47:42.117Z,21.86
2018-07-14T07:50:12.288Z,21.97
2018-07-14T07:52:42.066Z,22.03
2018-07-14T07:55:12.011Z,22.19
2018-07-14T07:57:41.567Z,22.29
2018-07-14T08:00:11.570Z,22.40
2018-07-14T08:02:44.609Z,22.29
2018-07-14T08:05:14.637Z,22.31
2018-07-14T08:07:44.374Z,22.20
2018-07-14T08:10:18.426Z,22.29
2018-07-14T08:12:49.625Z,22.33
2018-07-14T08:15:19.986Z,22.47
2018-07-14T08:17:53.626Z,22.64
2018-07-14T08:20:23.382Z,22.87
2018-07-14T08:22:53.251Z,22.84
2018-07-14T08:25:22.767Z,23.07
2018-07-14T08:27:52.582Z,23.07
2018-07-14T08:30:22.495Z,22.99
2018-07-14T08:32:52.332Z,22.68
2018-07-14T08:35:22.189Z,22.65
2018-07-14T08:37:51.588Z,22.78
2018-07-14T08:40:21.496Z,23.07
2018-07-14T08:42:51.518Z,22.83
2018-07-14T08:45:21.333Z,22.77
2018-07-14T08:47:51.151Z,22.84
2018-07-14T08:50:21.009Z,22.93
2018-07-14T08:52:50.798Z,22.85
2018-07-14T08:55:20.603Z,22.86
2018-07-14T08:57:50.349Z,22.94
2018-07-14T09:00:21.267Z,23.08
2018-07-14T09:02:52.895Z,22.90
2018-07-14T09:05:22.348Z,22.99
2018-07-14T09:07:53.319Z,23.09
2018-07-14T09:10:24.896Z,23.18
2018-07-14T09:12:58.160Z,23.39
2018-07-14T09:15:28.179Z,23.42
2018-07-14T09:17:57.641Z,23.26
2018-07-14T09:20:31.009Z,23.08
2018-07-14T09:23:05.148Z,23.33
2018-07-14T09:25:36.060Z,23.46
2018-07-14T09:28:08.931Z,23.57
2018-07-14T09:30:39.798Z,23.50
2018-07-14T09:33:10.666Z,23.64
2018-07-14T09:35:40.734Z,23.86
2018-07-14T09:38:10.634Z,23.83
2018-07-14T09:40:40.497Z,23.90
2018-07-14T09:43:10.266Z,23.84
2018-07-14T09:45:40.043Z,23.66
2018-07-14T09:48:11.218Z,23.93
2018-07-14T09:50:41.379Z,23.94
2018-07-14T09:53:11.454Z,23.97
2018-07-14T09:55:41.221Z,24.10
2018-07-14T09:58:11.085Z,24.12
2018-07-14T10:00:46.750Z,23.40
2018-07-14T10:03:16.600Z,23.59
2018-07-14T10:05:46.859Z,23.79
2018-07-14T10:08:18.819Z,24.10
2018-07-14T10:10:50.510Z,24.15
2018-07-14T10:13:20.975Z,24.41
2018-07-14T10:15:51.553Z,24.32
2018-07-14T10:18:21.255Z,24.34
2018-07-14T10:20:51.096Z,24.26
2018-07-14T10:23:21.012Z,24.23
2018-07-14T10:25:51.157Z,24.44
2018-07-14T10:28:21.094Z,24.46
2018-07-14T10:30:50.902Z,24.46
2018-07-14T10:33:20.745Z,24.52
2018-07-14T10:35:50.608Z,24.41
2018-07-14T10:38:20.026Z,24.48
2018-07-14T10:40:49.936Z,24.59
2018-07-14T10:43:21.166Z,24.71
2018-07-14T10:45:50.976Z,24.76
2018-07-14T10:48:20.981Z,24.60
2018-07-14T10:50:50.933Z,24.28
2018-07-14T10:53:20.682Z,24.49
2018-07-14T10:55:50.589Z,24.61
2018-07-14T10:58:20.375Z,24.86
2018-07-14T11:00:50.188Z,25.00
2018-07-14T11:03:20.100Z,24.96
2018-07-14T11:05:50.066Z,25.02
2018-07-14T11:08:19.976Z,25.06
2018-07-14T11:10:49.736Z,25.09
2018-07-14T11:13:19.524Z,25.23
2018-07-14T11:15:49.265Z,25.35
2018-07-14T11:18:19.102Z,25.14
2018-07-14T11:20:49.142Z,25.28
2018-07-14T11:23:19.094Z,25.54
2018-07-14T11:25:48.511Z,25.40
2018-07-14T11:28:17.944Z,25.23
2018-07-14T11:30:47.701Z,25.23
2018-07-14T11:33:17.456Z,25.16
2018-07-14T11:35:47.167Z,24.93
2018-07-14T11:38:17.124Z,25.07
2018-07-14T11:40:46.531Z,25.27
2018-07-14T11:43:16.210Z,25.52
2018-07-14T11:45:45.907Z,25.81
2018-07-14T11:48:15.759Z,25.67
2018-07-14T11:50:45.638Z,25.62
2018-07-14T11:53:41.800Z,25.47
2018-07-14T11:56:11.819Z,25.53
2018-07-14T11:58:41.689Z,25.67
2018-07-14T12:01:11.557Z,25.97
2018-07-14T12:03:42.093Z,25.84
2018-07-14T12:06:11.630Z,25.87
2018-07-14T12:08:41.600Z,26.02
2018-07-14T12:11:11.738Z,26.02
2018-07-14T12:13:41.868Z,26.13
2018-07-14T12:16:11.722Z,26.18
2018-07-14T12:18:41.770Z,25.99
2018-07-14T12:21:11.216Z,26.07
2018-07-14T12:23:41.118Z,26.26
2018-07-14T12:26:10.525Z,26.20
2018-07-14T12:28:40.498Z,26.15
2018-07-14T12:31:10.496Z,26.29
2018-07-14T12:33:40.514Z,26.53
2018-07-14T12:36:10.427Z,26.40
2018-07-14T12:38:40.317Z,26.40
2018-07-14T12:41:10.386Z,26.55
2018-07-14T12:43:40.342Z,26.54
2018-07-14T12:46:09.785Z,26.72
2018-07-14T12:48:39.765Z,26.79
2018-07-14T12:51:10.120Z,26.88
2018-07-14T12:53:40.002Z,26.71
2018-07-14T12:56:10.018Z,26.82
2018-07-14T12:58:39.973Z,26.75
2018-07-14T13:01:11.083Z,26.78
2018-07-14T13:03:41.564Z,26.87
2018-07-14T13:06:11.511Z,27.18
2018-07-14T13:08:41.388Z,27.14
2018-07-14T13:11:11.677Z,27.00
2018-07-14T13:13:44.477Z,27.26
2018-07-14T13:16:14.486Z,27.00
2018-07-14T13:18:44.529Z,27.00
2018-07-14T13:21:14.512Z,27.12
2018-07-14T13:23:44.574Z,27.21
2018-07-14T13:26:14.367Z,27.29
2018-07-14T13:28:44.092Z,27.41
2018-07-14T13:31:14.360Z,27.39
2018-07-14T13:33:43.842Z,27.57
2018-07-14T13:36:13.975Z,27.93
2018-07-14T13:39:10.656Z,28.32
2018-07-14T13:41:40.796Z,28.62
2018-07-14T13:44:10.735Z,28.71
2018-07-14T13:46:40.827Z,28.26
2018-07-14T13:49:10.746Z,28.03
2018-07-14T13:51:40.681Z,27.76
2018-07-14T13:54:10.864Z,28.18
2018-07-14T13:56:41.295Z,28.74
2018-07-14T13:59:11.689Z,29.15
2018-07-14T14:01:41.585Z,28.93
2018-07-14T14:04:11.754Z,28.82
2018-07-14T14:06:42.025Z,29.24
2018-07-14T14:09:12.176Z,29.71
2018-07-14T14:11:41.631Z,29.11
2018-07-14T14:14:11.611Z,28.89
2018-07-14T14:16:41.622Z,29.47
2018-07-14T14:19:11.741Z,29.38
2018-07-14T14:21:42.072Z,29.02
2018-07-14T14:24:12.185Z,29.56
2018-07-14T14:26:42.177Z,29.73
2018-07-14T14:29:12.265Z,29.95
2018-07-14T14:31:42.236Z,30.13
2018-07-14T14:34:12.356Z,30.10
2018-07-14T14:36:42.479Z,30.86
2018-07-14T14:39:12.369Z,30.62
2018-07-14T14:41:43.432Z,30.52
2018-07-14T14:44:13.420Z,30.57
2018-07-14T14:46:43.661Z,31.43
2018-07-14T14:49:13.585Z,31.48
2018-07-14T14:51:43.677Z,31.33
2018-07-14T14:54:13.519Z,31.88
2018-07-14T14:56:44.018Z,31.20
2018-07-14T14:59:20.869Z,31.45
2018-07-14T15:01:50.966Z,31.95
2018-07-14T15:04:21.039Z,32.27
2018-07-14T15:06:51.100Z,32.74
2018-07-14T15:09:21.064Z,33.01
2018-07-14T15:11:50.702Z,32.98
2018-07-14T15:14:20.787Z,32.04
2018-07-14T15:16:51.067Z,31.91
2018-07-14T15:19:21.169Z,32.07
2018-07-14T15:21:51.037Z,32.70
2018-07-14T15:24:21.164Z,33.01
2018-07-14T15:26:51.237Z,31.65
2018-07-14T15:29:21.416Z,30.23
2018-07-14T15:31:51.358Z,30.62
2018-07-14T15:34:21.628Z,29.49
2018-07-14T15:36:51.596Z,28.38
2018-07-14T15:39:21.968Z,28.21
2018-07-14T15:41:52.592Z,28.17
2018-07-14T15:44:22.836Z,28.14
2018-07-14T15:46:52.828Z,28.10
2018-07-14T15:49:22.803Z,27.84
2018-07-14T15:51:53.127Z,27.91
2018-07-14T15:54:23.400Z,27.79
2018-07-14T15:56:53.204Z,27.89
2018-07-14T15:59:22.741Z,27.71
2018-07-14T16:01:52.812Z,27.56
2018-07-14T16:04:22.668Z,27.43
2018-07-14T16:06:52.801Z,27.55
2018-07-14T16:09:22.666Z,27.47
2018-07-14T16:11:52.843Z,27.34
2018-07-14T16:14:22.810Z,27.15
2018-07-14T16:16:52.740Z,27.23
2018-07-14T16:19:23.173Z,27.27
2018-07-14T16:21:53.318Z,27.17
2018-07-14T16:24:23.315Z,27.21
2018-07-14T16:26:53.484Z,27.26
2018-07-14T16:29:23.317Z,27.14
2018-07-14T16:31:53.510Z,27.28
2018-07-14T16:34:23.524Z,27.18
2018-07-14T16:36:53.398Z,27.15
2018-07-14T16:39:23.302Z,27.04
2018-07-14T16:41:52.863Z,27.04
2018-07-14T16:44:22.785Z,26.98
2018-07-14T16:46:52.937Z,26.89
2018-07-14T16:49:23.012Z,26.96
2018-07-14T16:51:56.485Z,26.99
2018-07-14T16:54:25.989Z,27.06
2018-07-14T16:56:55.476Z,27.08
2018-07-14T16:59:25.672Z,27.02
2018-07-14T17:01:55.520Z,26.99
2018-07-14T17:04:25.548Z,26.89
2018-07-14T17:06:55.303Z,26.85
2018-07-14T17:09:25.112Z,26.80
2018-07-14T17:11:54.941Z,26.81
2018-07-14T17:14:25.043Z,26.87
2018-07-14T17:16:55.015Z,26.95
2018-07-14T17:19:25.003Z,26.81
2018-07-14T17:21:55.015Z,26.86
2018-07-14T17:24:25.049Z,26.98
2018-07-14T17:26:55.343Z,26.85
2018-07-14T17:29:25.169Z,26.79
2018-07-14T17:31:55.069Z,26.88
2018-07-14T17:34:25.176Z,26.91
2018-07-14T17:36:55.088Z,26.82
2018-07-14T17:39:25.029Z,26.76
2018-07-14T17:41:55.003Z,26.74
2018-07-14T17:44:24.862Z,26.72
2018-07-14T17:46:54.966Z,26.63
2018-07-14T17:49:26.827Z,26.54
2018-07-14T17:51:59.300Z,26.54
2018-07-14T17:54:29.329Z,26.61
2018-07-14T17:56:59.290Z,26.53
2018-07-14T17:59:29.379Z,26.53
2018-07-14T18:01:59.268Z,26.50
2018-07-14T18:04:29.213Z,26.42
2018-07-14T18:06:59.207Z,26.46
2018-07-14T18:09:29.279Z,26.33
2018-07-14T18:11:59.182Z,26.26
2018-07-14T18:14:29.197Z,26.20
2018-07-14T18:16:59.235Z,26.10
2018-07-14T18:19:28.828Z,26.11
2018-07-14T18:21:58.852Z,26.13
2018-07-14T18:24:28.764Z,26.08
2018-07-14T18:26:58.792Z,26.05
2018-07-14T18:29:28.699Z,25.94
2018-07-14T18:31:58.670Z,25.87
2018-07-14T18:34:29.084Z,25.82
2018-07-14T18:36:59.180Z,25.74
2018-07-14T18:39:28.802Z,25.77
2018-07-14T18:41:58.759Z,25.70
2018-07-14T18:44:28.800Z,25.72
2018-07-14T18:46:58.832Z,25.77
2018-07-14T18:49:28.952Z,25.72
2018-07-14T18:51:58.599Z,25.67
2018-07-14T18:54:28.813Z,25.66
2018-07-14T18:56:58.749Z,25.66
2018-07-14T18:59:28.793Z,25.55
2018-07-14T19:01:58.816Z,25.55
2018-07-14T19:04:29.001Z,25.49
2018-07-14T19:06:59.021Z,25.37
2018-07-14T19:09:29.081Z,25.34
2018-07-14T19:11:59.170Z,25.36
2018-07-14T19:14:29.334Z,25.29
2018-07-14T19:17:00.293Z,25.21
2018-07-14T19:19:30.429Z,25.17
2018-07-14T19:22:00.938Z,25.11
2018-07-14T19:24:31.243Z,25.05
2018-07-14T19:27:00.964Z,24.96
2018-07-14T19:29:31.044Z,24.92
2018-07-14T19:32:01.311Z,24.92
2018-07-14T19:34:30.987Z,24.88
2018-07-14T19:37:00.767Z,24.82
2018-07-14T19:39:31.886Z,24.84
2018-07-14T19:42:01.802Z,24.82
2018-07-14T19:44:31.785Z,24.69
2018-07-14T19:47:01.861Z,24.71
2018-07-14T19:49:32.640Z,24.70
2018-07-14T19:52:02.808Z,24.64
2018-07-14T19:54:32.963Z,24.59
2018-07-14T19:57:02.840Z,24.52
2018-07-14T19:59:32.761Z,24.42
2018-07-14T20:02:03.174Z,24.45
2018-07-14T20:04:33.066Z,24.39
2018-07-14T20:07:03.008Z,24.28
2018-07-14T20:09:33.132Z,24.27
2018-07-14T20:12:03.175Z,24.20
2018-07-14T20:14:33.177Z,24.19
2018-07-14T20:17:03.116Z,24.19
2018-07-14T20:19:33.053Z,24.08
2018-07-14T20:22:03.202Z,24.06
2018-07-14T20:24:33.970Z,23.99
2018-07-14T20:27:03.952Z,23.93
2018-07-14T20:29:33.879Z,23.88
2018-07-14T20:32:03.563Z,23.89
2018-07-14T20:34:33.088Z,23.91
2018-07-14T20:37:02.744Z,23.81
2018-07-14T20:39:32.565Z,23.76
2018-07-14T20:42:02.832Z,23.64
2018-07-14T20:44:32.651Z,23.59
2018-07-14T20:47:02.343Z,23.51
2018-07-14T20:49:32.559Z,23.51
2018-07-14T20:52:02.898Z,23.44
2018-07-14T20:54:32.892Z,23.33
2018-07-14T20:57:02.894Z,23.39
2018-07-14T20:59:32.733Z,23.30
2018-07-14T21:02:02.578Z,23.19
2018-07-14T21:04:32.036Z,23.28
2018-07-14T21:07:01.887Z,23.19
2018-07-14T21:09:32.150Z,23.20
2018-07-14T21:12:02.352Z,23.17
2018-07-14T21:14:32.329Z,23.13
2018-07-14T21:17:02.364Z,23.07
2018-07-14T21:19:32.325Z,23.04
2018-07-14T21:22:02.296Z,22.96
2018-07-14T21:24:31.923Z,22.91
2018-07-14T21:27:01.825Z,23.02
2018-07-14T21:29:31.276Z,22.97
2018-07-14T21:32:01.195Z,22.89
2018-07-14T21:34:31.328Z,22.97
2018-07-14T21:37:01.173Z,22.88
2018-07-14T21:39:30.661Z,22.87
2018-07-14T21:42:00.656Z,22.71
2018-07-14T21:44:30.622Z,22.77
2018-07-14T21:47:00.621Z,22.70
2018-07-14T21:49:30.320Z,22.62
2018-07-14T21:52:00.142Z,22.72
2018-07-14T21:54:30.241Z,22.55
2018-07-14T21:57:00.158Z,22.73
2018-07-14T21:59:30.585Z,22.64
2018-07-14T22:02:04.720Z,22.61
2018-07-14T22:04:36.522Z,22.49
2018-07-14T22:07:06.494Z,22.52
2018-07-14T22:09:36.580Z,22.48
2018-07-14T22:12:07.029Z,22.57
2018-07-14T22:14:37.041Z,22.43
2018-07-14T22:17:07.024Z,22.29
2018-07-14T22:19:37.297Z,22.31
2018-07-14T22:22:07.260Z,22.39
2018-07-14T22:24:37.085Z,22.26
2018-07-14T22:27:07.164Z,22.28
2018-07-14T22:29:36.701Z,22.35
2018-07-14T22:32:08.179Z,22.34
2018-07-14T22:34:38.224Z,22.35
2018-07-14T22:37:08.109Z,22.20
2018-07-14T22:39:38.641Z,22.18
2018-07-14T22:42:08.733Z,22.14
2018-07-14T22:44:38.995Z,22.13
2018-07-14T22:47:08.929Z,22.15
2018-07-14T22:49:38.802Z,22.09
2018-07-14T22:52:09.262Z,22.02
2018-07-14T22:54:39.418Z,21.95
2018-07-14T22:57:09.485Z,21.93
2018-07-14T22:59:39.396Z,22.03
2018-07-14T23:02:09.413Z,21.93
2018-07-14T23:04:39.522Z,21.92
2018-07-14T23:07:09.557Z,21.95
2018-07-14T23:09:39.560Z,21.85
2018-07-14T23:12:09.408Z,21.88
2018-07-14T23:14:39.440Z,21.87
2018-07-14T23:17:09.688Z,21.86
2018-07-14T23:19:39.517Z,21.72
2018-07-14T23:22:09.519Z,21.70
2018-07-14T23:24:39.454Z,21.70
2018-07-14T23:27:09.269Z,21.56
2018-07-14T23:29:39.099Z,21.51
2018-07-14T23:32:08.981Z,21.62
2018-07-14T23:34:39.191Z,21.57
2018-07-14T23:37:08.716Z,21.56
2018-07-14T23:39:38.770Z,21.46
2018-07-14T23:42:08.784Z,21.46
2018-07-14T23:44:38.643Z,21.43
2018-07-14T23:47:08.673Z,21.36
2018-07-14T23:49:38.757Z,21.30
2018-07-14T23:52:08.584Z,21.35
2018-07-14T23:54:38.072Z,21.34
2018-07-14T23:57:08.561Z,21.30
2018-07-14T23:59:38.736Z,21.30
